createdAt,value
2022-10-31T00:00:40.979Z,18.9
2022-10-31T00:01:45.046Z,14.7
2022-10-31T00:02:49.751Z,15.4
2022-10-31T00:03:54.159Z,15
2022-10-31T00:04:58.611Z,15.9
2022-10-31T00:06:02.894Z,15
2022-10-31T00:07:07.374Z,15.4
2022-10-31T00:08:11.652Z,17.5
2022-10-31T00:09:16.079Z,16.7
2022-10-31T00:10:20.534Z,16.6
2022-10-31T00:11:24.670Z,18.3
2022-10-31T00:12:28.791Z,15.5
2022-10-31T00:13:32.880Z,15.6
2022-10-31T00:14:37.026Z,18.5
2022-10-31T00:15:41.536Z,18.1
2022-10-31T00:16:45.648Z,15.3
2022-10-31T00:17:49.706Z,16.6
2022-10-31T00:18:53.816Z,17
2022-10-31T00:19:57.923Z,16.8
2022-10-31T00:21:02.526Z,16.6
2022-10-31T00:22:06.583Z,15.9
2022-10-31T00:23:11.122Z,17.3
2022-10-31T00:24:15.210Z,16.2
2022-10-31T00:25:19.712Z,15.7
2022-10-31T00:26:23.947Z,16.8
2022-10-31T00:27:28.425Z,16.5
2022-10-31T00:28:32.510Z,16.2
2022-10-31T00:29:36.554Z,17
2022-10-31T00:30:41.177Z,16.6
2022-10-31T00:31:45.208Z,16.9
2022-10-31T00:32:49.494Z,16.6
2022-10-31T00:33:53.951Z,16.3
2022-10-31T00:34:58.066Z,15.7
2022-10-31T00:36:02.119Z,16.4
2022-10-31T00:37:06.810Z,16.5
2022-10-31T00:38:11.313Z,15.4
2022-10-31T00:39:15.453Z,16
2022-10-31T00:40:19.462Z,16.8
2022-10-31T00:41:23.533Z,17.9
2022-10-31T00:42:27.597Z,16.1
2022-10-31T00:43:31.730Z,17.2
2022-10-31T00:44:36.338Z,14.9
2022-10-31T00:45:40.786Z,16
2022-10-31T00:46:44.962Z,15.3
2022-10-31T00:47:49.482Z,18.5
2022-10-31T00:48:53.637Z,16.9
2022-10-31T00:49:57.682Z,17
2022-10-31T00:51:02.242Z,14.4
2022-10-31T00:52:06.430Z,15.2
2022-10-31T00:53:10.521Z,17.3
2022-10-31T00:54:15.102Z,15.1
2022-10-31T00:55:19.746Z,15.1
2022-10-31T00:56:24.262Z,14.9
2022-10-31T00:57:28.823Z,16
2022-10-31T00:58:33.414Z,15.3
2022-10-31T00:59:38.127Z,15.5
2022-10-31T01:00:43.734Z,15
2022-10-31T01:01:47.182Z,18.2
2022-10-31T01:02:51.266Z,15
2022-10-31T01:03:55.758Z,14
2022-10-31T01:04:59.918Z,15.7
2022-10-31T01:06:04.493Z,16.7
2022-10-31T01:07:08.553Z,13.4
2022-10-31T01:08:12.600Z,15.4
2022-10-31T01:09:17.143Z,14.6
2022-10-31T01:10:21.298Z,17.6
2022-10-31T01:11:25.798Z,16
2022-10-31T01:12:29.798Z,15.6
2022-10-31T01:13:42.022Z,16.3
2022-10-31T01:14:46.233Z,14.5
2022-10-31T01:15:50.770Z,14.9
2022-10-31T01:16:55.271Z,13.6
2022-10-31T01:17:59.615Z,15.7
2022-10-31T01:19:03.965Z,15.6
2022-10-31T01:20:08.476Z,17.8
2022-10-31T01:21:12.763Z,16.3
2022-10-31T01:22:19.707Z,13.6
2022-10-31T01:23:23.782Z,16.2
2022-10-31T01:24:28.363Z,15.3
2022-10-31T01:25:32.402Z,17
2022-10-31T01:26:36.534Z,16.4
2022-10-31T01:27:41.182Z,15.7
2022-10-31T01:28:45.799Z,13.9
2022-10-31T01:29:50.103Z,14.8
2022-10-31T01:30:54.441Z,13
2022-10-31T01:32:01.418Z,13.3
2022-10-31T01:33:05.535Z,13.9
2022-10-31T01:34:10.046Z,16.4
2022-10-31T01:35:14.185Z,14
2022-10-31T01:36:18.269Z,15.5
2022-10-31T01:37:27.848Z,15.8
2022-10-31T01:38:31.922Z,13.7
2022-10-31T01:39:36.097Z,14.7
2022-10-31T01:40:40.575Z,15.8
2022-10-31T01:41:44.678Z,14.5
2022-10-31T01:42:49.217Z,14.3
2022-10-31T01:43:53.200Z,15.2
2022-10-31T01:44:57.379Z,15.9
2022-10-31T01:46:01.438Z,15
2022-10-31T01:47:05.590Z,15.7
2022-10-31T01:48:12.738Z,15.5
2022-10-31T01:49:16.727Z,15.1
2022-10-31T01:50:26.438Z,13.6
2022-10-31T01:51:33.495Z,16.2
2022-10-31T01:52:37.513Z,14.9
2022-10-31T01:53:44.623Z,13.6
2022-10-31T01:54:48.745Z,16.1
2022-10-31T01:55:52.718Z,14.9
2022-10-31T01:56:57.027Z,13.9
2022-10-31T01:58:01.513Z,15.5
2022-10-31T01:59:08.030Z,13.7
2022-10-31T02:00:12.229Z,16.1
2022-10-31T02:01:16.844Z,14.5
2022-10-31T02:02:20.903Z,13.7
2022-10-31T02:03:24.865Z,15.9
2022-10-31T02:04:29.010Z,13.2
2022-10-31T02:05:33.037Z,14.7
2022-10-31T02:06:37.099Z,14.8
2022-10-31T02:07:49.338Z,14.3
2022-10-31T02:08:53.487Z,15
2022-10-31T02:09:58.080Z,15.4
2022-10-31T02:11:02.617Z,13.9
2022-10-31T02:12:06.735Z,14.9
2022-10-31T02:13:11.249Z,14.7
2022-10-31T02:14:15.400Z,14.9
2022-10-31T02:15:19.318Z,15.3
2022-10-31T02:16:23.954Z,13.9
2022-10-31T02:17:28.051Z,16.6
2022-10-31T02:18:32.179Z,12.7
2022-10-31T02:19:36.706Z,13.9
2022-10-31T02:20:51.414Z,15.2
2022-10-31T02:22:06.285Z,13.2
2022-10-31T02:23:13.366Z,14.8
2022-10-31T02:24:25.557Z,14.3
2022-10-31T02:25:40.258Z,14.4
2022-10-31T02:26:47.369Z,15.7
2022-10-31T02:28:02.607Z,14.8
2022-10-31T02:29:16.494Z,13.8
2022-10-31T02:30:28.624Z,15.1
2022-10-31T02:31:37.721Z,13.9
2022-10-31T02:32:52.549Z,13.3
2022-10-31T02:34:02.310Z,12.3
2022-10-31T02:35:11.909Z,14.6
2022-10-31T02:36:26.554Z,13.7
2022-10-31T02:37:35.836Z,12.7
2022-10-31T02:38:48.025Z,13.4
2022-10-31T02:40:00.261Z,14.8
2022-10-31T02:41:09.429Z,14.7
2022-10-31T02:42:16.574Z,11.9
2022-10-31T02:43:21.189Z,14.6
2022-10-31T02:44:28.213Z,14.7
2022-10-31T02:45:42.879Z,12.3
2022-10-31T02:46:52.598Z,12.3
2022-10-31T02:48:03.017Z,13.7
2022-10-31T02:49:09.909Z,12.7
2022-10-31T02:50:19.234Z,13.3
2022-10-31T02:51:23.619Z,13.5
2022-10-31T02:52:27.742Z,12.2
2022-10-31T02:53:31.770Z,12.5
2022-10-31T02:54:35.890Z,13.8
2022-10-31T02:55:40.338Z,13
2022-10-31T02:56:54.797Z,13.4
2022-10-31T02:57:59.158Z,14
2022-10-31T02:59:06.059Z,12
2022-10-31T03:00:10.702Z,12
2022-10-31T03:01:15.323Z,13
2022-10-31T03:02:30.020Z,13.8
2022-10-31T03:03:42.005Z,14
2022-10-31T03:04:49.174Z,13.7
2022-10-31T03:06:01.350Z,12.3
2022-10-31T03:07:11.009Z,11.9
2022-10-31T03:08:20.590Z,12.5
2022-10-31T03:09:24.837Z,13.1
2022-10-31T03:10:34.953Z,12.1
2022-10-31T03:11:42.096Z,13.1
2022-10-31T03:12:47.811Z,13.6
2022-10-31T03:13:50.565Z,12.8
2022-10-31T03:15:02.835Z,14.2
2022-10-31T03:16:12.462Z,14
2022-10-31T03:17:21.726Z,13.5
2022-10-31T03:18:31.841Z,13
2022-10-31T03:19:36.041Z,12.9
2022-10-31T03:20:40.682Z,12.6
2022-10-31T03:21:47.717Z,14.4
2022-10-31T03:23:02.377Z,12.9
2022-10-31T03:24:06.490Z,13.1
2022-10-31T03:25:10.681Z,11.9
2022-10-31T03:26:15.185Z,12.5
2022-10-31T03:27:19.811Z,13.9
2022-10-31T03:28:24.271Z,12.9
2022-10-31T03:29:28.390Z,13.7
2022-10-31T03:30:32.421Z,14.6
2022-10-31T03:31:36.523Z,13.3
2022-10-31T03:32:46.665Z,14.1
2022-10-31T03:33:50.703Z,14.2
2022-10-31T03:34:54.877Z,11.6
2022-10-31T03:35:58.978Z,13.9
2022-10-31T03:37:03.489Z,13.5
2022-10-31T03:38:08.017Z,13.9
2022-10-31T03:39:11.617Z,13.5
2022-10-31T03:40:15.782Z,12.3
2022-10-31T03:41:20.245Z,12.2
2022-10-31T03:42:24.412Z,11.7
2022-10-31T03:43:28.938Z,12
2022-10-31T03:44:33.018Z,13.5
2022-10-31T03:45:37.189Z,12.2
2022-10-31T03:46:41.714Z,11.9
2022-10-31T03:47:45.861Z,14.5
2022-10-31T03:48:50.326Z,12.4
2022-10-31T03:49:54.404Z,13.7
2022-10-31T03:50:58.701Z,14.8
2022-10-31T03:52:11.187Z,16.7
2022-10-31T03:53:23.482Z,13.6
2022-10-31T03:54:28.018Z,12.9
2022-10-31T03:55:35.309Z,16.4
2022-10-31T03:56:47.351Z,14.7
2022-10-31T03:57:51.439Z,12.9
2022-10-31T03:58:55.470Z,13.9
2022-10-31T04:00:05.159Z,12.3
2022-10-31T04:01:09.834Z,12.4
2022-10-31T04:02:13.852Z,12
2022-10-31T04:03:17.923Z,14.4
2022-10-31T04:04:27.583Z,14.6
2022-10-31T04:05:31.681Z,14.8
2022-10-31T04:06:35.745Z,16.4
2022-10-31T04:07:39.794Z,13.7
2022-10-31T04:08:43.914Z,15.2
2022-10-31T04:09:53.741Z,12.6
2022-10-31T04:10:58.150Z,14.8
2022-10-31T04:12:02.230Z,13.9
2022-10-31T04:13:06.932Z,16.2
2022-10-31T04:14:11.437Z,15
2022-10-31T04:15:16.006Z,13.9
2022-10-31T04:16:20.461Z,15.1
2022-10-31T04:17:24.621Z,17.5
2022-10-31T04:18:29.201Z,15
2022-10-31T04:19:33.697Z,15
2022-10-31T04:20:37.825Z,15.2
2022-10-31T04:21:42.378Z,14.5
2022-10-31T04:22:46.406Z,14.7
2022-10-31T04:23:50.558Z,17.4
2022-10-31T04:24:55.051Z,16.1
2022-10-31T04:25:59.116Z,16.4
2022-10-31T04:27:03.267Z,16.8
2022-10-31T04:28:07.941Z,17.5
2022-10-31T04:29:12.439Z,16.9
2022-10-31T04:30:17.018Z,17.2
2022-10-31T04:31:21.601Z,16.4
2022-10-31T04:32:26.133Z,16.3
2022-10-31T04:33:31.055Z,16.9
2022-10-31T04:34:35.315Z,17.4
2022-10-31T04:35:39.869Z,18.1
2022-10-31T04:36:43.873Z,16.9
2022-10-31T04:37:47.997Z,18.6
2022-10-31T04:38:52.090Z,17.1
2022-10-31T04:39:56.697Z,18.2
2022-10-31T04:41:01.191Z,18.4
2022-10-31T04:42:05.861Z,17.2
2022-10-31T04:43:10.400Z,17.2
2022-10-31T04:44:14.398Z,18
2022-10-31T04:45:20.270Z,16.4
2022-10-31T04:46:23.069Z,17.7
2022-10-31T04:47:27.545Z,19.3
2022-10-31T04:48:31.652Z,18.1
2022-10-31T04:49:35.761Z,15.7
2022-10-31T04:50:40.361Z,15.5
2022-10-31T04:51:44.400Z,16.2
2022-10-31T04:52:49.125Z,17.2
2022-10-31T04:53:53.541Z,16
2022-10-31T04:54:57.657Z,15
2022-10-31T04:56:01.759Z,14.5
2022-10-31T04:57:06.409Z,15.6
2022-10-31T04:58:10.513Z,15.2
2022-10-31T04:59:14.944Z,17.8
2022-10-31T05:00:19.541Z,17.1
2022-10-31T05:01:23.806Z,14.3
2022-10-31T05:02:27.664Z,15.4
2022-10-31T05:03:31.769Z,14.5
2022-10-31T05:04:35.833Z,14.3
2022-10-31T05:05:39.845Z,15.2
2022-10-31T05:06:43.948Z,14
2022-10-31T05:07:48.113Z,14.9
2022-10-31T05:08:52.589Z,15.8
2022-10-31T05:09:56.714Z,14.8
2022-10-31T05:11:03.190Z,15.1
2022-10-31T05:12:05.360Z,19.6
2022-10-31T05:13:09.531Z,17.6
2022-10-31T05:14:14.061Z,15.4
2022-10-31T05:15:18.663Z,19.3
2022-10-31T05:16:23.101Z,15.1
2022-10-31T05:17:27.269Z,14.6
2022-10-31T05:18:31.854Z,15.5
2022-10-31T05:19:35.866Z,17.1
2022-10-31T05:20:39.945Z,16.5
2022-10-31T05:21:43.989Z,16.6
2022-10-31T05:22:48.158Z,15.9
2022-10-31T05:23:52.305Z,15.6
2022-10-31T05:24:56.858Z,16.4
2022-10-31T05:26:01.426Z,17.2
2022-10-31T05:27:05.945Z,18.4
2022-10-31T05:28:09.997Z,15.3
2022-10-31T05:29:14.097Z,16.1
2022-10-31T05:30:18.253Z,14.3
2022-10-31T05:31:22.283Z,15.2
2022-10-31T05:32:26.289Z,16.3
2022-10-31T05:33:30.378Z,16.1
2022-10-31T05:34:34.559Z,15.5
2022-10-31T05:35:38.529Z,16.8
2022-10-31T05:36:42.617Z,17.1
2022-10-31T05:37:46.729Z,18.8
2022-10-31T05:38:50.877Z,16.9
2022-10-31T05:39:55.437Z,15.3
2022-10-31T05:40:59.913Z,16.6
2022-10-31T05:42:04.052Z,16.4
2022-10-31T05:43:08.099Z,15.8
2022-10-31T05:44:12.281Z,15.9
2022-10-31T05:45:16.406Z,18.8
2022-10-31T05:46:20.940Z,18.3
2022-10-31T05:47:24.937Z,16.5
2022-10-31T05:48:29.434Z,18.3
2022-10-31T05:49:33.568Z,17
2022-10-31T05:50:37.601Z,18.7
2022-10-31T05:51:41.745Z,19.5
2022-10-31T05:52:45.848Z,16.1
2022-10-31T05:53:55.497Z,16.5
2022-10-31T05:55:00.154Z,17.1
2022-10-31T05:56:04.494Z,17.5
2022-10-31T05:57:08.653Z,19.1
2022-10-31T05:58:12.776Z,18.9
2022-10-31T05:59:16.844Z,18.5
2022-10-31T06:00:21.461Z,17.7
2022-10-31T06:01:25.976Z,16.9
2022-10-31T06:02:30.019Z,16.8
2022-10-31T06:03:34.147Z,17.3
2022-10-31T06:04:38.233Z,16.3
2022-10-31T06:05:42.472Z,17.3
2022-10-31T06:06:47.014Z,17.1
2022-10-31T06:07:51.478Z,16.7
2022-10-31T06:08:55.816Z,17.7
2022-10-31T06:10:00.089Z,16.9
2022-10-31T06:11:04.049Z,17.7
2022-10-31T06:12:08.307Z,18.4
2022-10-31T06:13:12.865Z,17.1
2022-10-31T06:14:16.946Z,18.6
2022-10-31T06:15:24.011Z,18.9
2022-10-31T06:16:25.124Z,18.4
2022-10-31T06:17:29.681Z,16.8
2022-10-31T06:18:33.747Z,19.7
2022-10-31T06:19:37.925Z,17.2
2022-10-31T06:20:42.029Z,22.1
2022-10-31T06:21:46.549Z,18.3
2022-10-31T06:22:50.528Z,17.1
2022-10-31T06:23:54.728Z,16.5
2022-10-31T06:24:59.181Z,16.5
2022-10-31T06:26:03.334Z,16.5
2022-10-31T06:27:07.458Z,17.1
2022-10-31T06:28:11.485Z,17.1
2022-10-31T06:29:15.629Z,17.4
2022-10-31T06:30:19.929Z,16.7
2022-10-31T06:31:24.458Z,17.9
2022-10-31T06:32:28.984Z,15.6
2022-10-31T06:33:33.629Z,17.8
2022-10-31T06:34:38.221Z,18.3
2022-10-31T06:35:42.781Z,16.2
2022-10-31T06:36:47.172Z,18.3
2022-10-31T06:37:51.810Z,16.6
2022-10-31T06:38:55.828Z,15.8
2022-10-31T06:39:59.853Z,18.3
2022-10-31T06:41:04.571Z,20.8
2022-10-31T06:42:08.625Z,18.6
2022-10-31T06:43:13.204Z,17.8
2022-10-31T06:44:17.285Z,20.1
2022-10-31T06:45:21.850Z,22.2
2022-10-31T06:46:26.413Z,21.5
2022-10-31T06:47:30.416Z,17.9
2022-10-31T06:48:34.494Z,19.1
2022-10-31T06:49:38.645Z,18.9
2022-10-31T06:50:43.201Z,16.4
2022-10-31T06:51:47.280Z,20.1
2022-10-31T06:52:52.010Z,16.5
2022-10-31T06:53:56.376Z,19.2
2022-10-31T06:55:00.468Z,19.1
2022-10-31T06:56:05.185Z,23
2022-10-31T06:57:09.648Z,17.1
2022-10-31T06:58:14.264Z,20.9
2022-10-31T06:59:18.428Z,19
2022-10-31T07:00:22.884Z,19.8
2022-10-31T07:01:27.094Z,18.5
2022-10-31T07:02:31.713Z,18.7
2022-10-31T07:03:36.265Z,16.4
2022-10-31T07:04:40.961Z,21.7
2022-10-31T07:05:45.436Z,18.3
2022-10-31T07:06:51.898Z,16.2
2022-10-31T07:07:54.192Z,17.1
2022-10-31T07:08:58.589Z,19.1
2022-10-31T07:10:03.012Z,18.3
2022-10-31T07:11:07.344Z,17.1
2022-10-31T07:12:11.424Z,18.6
2022-10-31T07:13:16.014Z,18.2
2022-10-31T07:14:19.993Z,17.9
2022-10-31T07:15:24.059Z,20.5
2022-10-31T07:16:28.552Z,20.5
2022-10-31T07:17:32.753Z,17.6
2022-10-31T07:18:36.916Z,19.9
2022-10-31T07:19:41.444Z,20.3
2022-10-31T07:20:46.121Z,18.4
2022-10-31T07:21:50.592Z,16.6
2022-10-31T07:22:54.588Z,19
2022-10-31T07:23:58.774Z,17.3
2022-10-31T07:25:03.342Z,17.3
2022-10-31T07:26:07.880Z,17.4
2022-10-31T07:27:12.005Z,18.5
2022-10-31T07:28:16.176Z,18.5
2022-10-31T07:29:20.721Z,17.4
2022-10-31T07:30:25.300Z,18.4
2022-10-31T07:31:29.921Z,18.7
2022-10-31T07:32:34.417Z,19.5
2022-10-31T07:33:41.622Z,17.8
2022-10-31T07:34:47.374Z,17.9
2022-10-31T07:35:51.168Z,19.4
2022-10-31T07:36:55.252Z,20.6
2022-10-31T07:37:59.732Z,18.3
2022-10-31T07:39:11.508Z,17.8
2022-10-31T07:40:15.634Z,17.2
2022-10-31T07:41:19.793Z,16.3
2022-10-31T07:42:24.261Z,16.3
2022-10-31T07:43:28.414Z,17.7
2022-10-31T07:44:32.868Z,21.9
2022-10-31T07:45:37.185Z,18.9
2022-10-31T07:46:41.668Z,18.4
2022-10-31T07:47:45.656Z,18.9
2022-10-31T07:48:49.688Z,21.7
2022-10-31T07:49:53.888Z,19.6
2022-10-31T07:50:58.066Z,19.6
2022-10-31T07:52:02.568Z,21.1
2022-10-31T07:53:06.820Z,17.1
2022-10-31T07:54:11.440Z,20.5
2022-10-31T07:55:16.583Z,18.2
2022-10-31T07:56:20.838Z,18.6
2022-10-31T07:57:25.379Z,18.1
2022-10-31T07:58:29.594Z,19.8
2022-10-31T07:59:34.069Z,18.4
2022-10-31T08:00:38.301Z,20.4
2022-10-31T08:01:43.184Z,18.3
2022-10-31T08:02:47.300Z,18.4
2022-10-31T08:03:59.688Z,22
2022-10-31T08:05:04.264Z,21.5
2022-10-31T08:06:08.685Z,20.5
2022-10-31T08:07:13.205Z,18.5
2022-10-31T08:08:17.522Z,19.1
2022-10-31T08:09:21.905Z,20.4
2022-10-31T08:10:26.004Z,18.6
2022-10-31T08:11:30.232Z,20.6
2022-10-31T08:12:34.720Z,21.6
2022-10-31T08:13:38.837Z,21.4
2022-10-31T08:14:43.275Z,22.8
2022-10-31T08:15:47.416Z,20.9
2022-10-31T08:16:52.148Z,19.6
2022-10-31T08:17:56.577Z,20.1
2022-10-31T08:19:00.646Z,18.6
2022-10-31T08:20:04.789Z,19.9
2022-10-31T08:21:09.310Z,19.7
2022-10-31T08:22:13.384Z,21.1
2022-10-31T08:23:17.582Z,21.7
2022-10-31T08:24:22.064Z,21.2
2022-10-31T08:25:26.596Z,20.9
2022-10-31T08:26:30.704Z,22.2
2022-10-31T08:27:34.721Z,23.6
2022-10-31T08:28:38.792Z,22.7
2022-10-31T08:29:42.912Z,22.2
2022-10-31T08:30:47.013Z,26.2
2022-10-31T08:31:51.080Z,20.6
2022-10-31T08:32:55.197Z,23.7
2022-10-31T08:34:02.837Z,23.6
2022-10-31T08:35:07.245Z,23.5
2022-10-31T08:36:11.432Z,24.4
2022-10-31T08:37:15.537Z,22.3
2022-10-31T08:38:20.244Z,24.8
2022-10-31T08:39:24.776Z,23.5
2022-10-31T08:40:29.208Z,25.4
2022-10-31T08:41:33.332Z,20.8
2022-10-31T08:42:37.389Z,25.1
2022-10-31T08:43:41.529Z,25.5
2022-10-31T08:44:46.232Z,22.4
2022-10-31T08:45:50.781Z,23.6
2022-10-31T08:46:55.344Z,20.8
2022-10-31T08:48:00.114Z,22.5
2022-10-31T08:49:04.516Z,22.4
2022-10-31T08:50:08.602Z,21.2
2022-10-31T08:51:13.189Z,21.1
2022-10-31T08:52:17.288Z,20.6
2022-10-31T08:53:21.809Z,23
2022-10-31T08:54:26.377Z,26.7
2022-10-31T08:55:31.033Z,22.9
2022-10-31T08:56:35.549Z,21.9
2022-10-31T08:57:40.052Z,22.9
2022-10-31T08:58:44.264Z,26.2
2022-10-31T08:59:48.873Z,22.8
2022-10-31T09:00:53.494Z,23.3
2022-10-31T09:02:00.761Z,21.1
2022-10-31T09:03:05.080Z,22.8
2022-10-31T09:04:14.849Z,20.2
2022-10-31T09:05:19.470Z,22.1
2022-10-31T09:06:24.138Z,19.9
2022-10-31T09:07:28.437Z,22
2022-10-31T09:08:32.704Z,20.4
2022-10-31T09:09:37.376Z,24.5
2022-10-31T09:10:41.804Z,24.7
2022-10-31T09:11:46.372Z,20.4
2022-10-31T09:12:50.413Z,21.2
2022-10-31T09:14:00.030Z,22.4
2022-10-31T09:15:04.090Z,21
2022-10-31T09:16:08.768Z,19.3
2022-10-31T09:17:12.812Z,21.2
2022-10-31T09:18:17.591Z,19.5
2022-10-31T09:19:21.996Z,23.7
2022-10-31T09:20:26.672Z,22.3
2022-10-31T09:21:31.576Z,23.7
2022-10-31T09:22:36.895Z,21.6
2022-10-31T09:23:41.856Z,22.5
2022-10-31T09:24:46.862Z,24.3
2022-10-31T09:25:51.256Z,19.9
2022-10-31T09:26:55.740Z,21.6
2022-10-31T09:28:00.543Z,23
2022-10-31T09:29:04.956Z,20.8
2022-10-31T09:30:09.325Z,21.3
2022-10-31T09:31:13.599Z,19.7
2022-10-31T09:32:18.281Z,23.4
2022-10-31T09:33:22.773Z,21.3
2022-10-31T09:34:27.387Z,20
2022-10-31T09:35:31.998Z,21
2022-10-31T09:36:36.576Z,20.7
2022-10-31T09:37:41.152Z,22.6
2022-10-31T09:38:45.691Z,23.7
2022-10-31T09:39:50.172Z,22.3
2022-10-31T09:40:54.369Z,20.8
2022-10-31T09:42:06.684Z,20.4
2022-10-31T09:43:16.229Z,22.8
2022-10-31T09:44:26.451Z,23.5
2022-10-31T09:45:41.147Z,23.4
2022-10-31T09:46:45.668Z,23.7
2022-10-31T09:48:00.788Z,21.1
2022-10-31T09:49:12.697Z,22.5
2022-10-31T09:50:27.373Z,21
2022-10-31T09:51:42.220Z,24.1
2022-10-31T09:52:46.291Z,21.4
2022-10-31T09:53:53.392Z,21.7
2022-10-31T09:55:08.245Z,21.9
2022-10-31T09:56:18.436Z,23.2
2022-10-31T09:57:22.901Z,24.8
2022-10-31T09:58:27.040Z,26.6
2022-10-31T09:59:31.132Z,26.4
2022-10-31T10:00:35.707Z,27.3
2022-10-31T10:01:39.899Z,28.7
2022-10-31T10:02:46.848Z,28.7
2022-10-31T10:03:51.456Z,27.4
2022-10-31T10:04:56.028Z,32.3
2022-10-31T10:06:06.207Z,36.6
2022-10-31T10:07:18.960Z,29.2
2022-10-31T10:08:31.936Z,30.4
2022-10-31T10:09:36.477Z,26.7
2022-10-31T10:10:40.871Z,31.3
2022-10-31T10:11:52.980Z,33.8
2022-10-31T10:13:03.639Z,34.1
2022-10-31T10:14:06.679Z,35.6
2022-10-31T10:15:21.416Z,35.9
2022-10-31T10:16:31.007Z,29.4
2022-10-31T10:17:37.616Z,29.1
2022-10-31T10:18:49.864Z,31.9
2022-10-31T10:20:04.607Z,31.5
2022-10-31T10:21:19.385Z,29.3
2022-10-31T10:22:29.040Z,36.5
2022-10-31T10:23:33.097Z,33.2
2022-10-31T10:24:45.323Z,29
2022-10-31T10:25:55.043Z,30.5
2022-10-31T10:26:59.200Z,29.4
2022-10-31T10:28:11.464Z,29.9
2022-10-31T10:29:18.496Z,30.6
2022-10-31T10:30:29.132Z,33.4
2022-10-31T10:31:33.243Z,31.4
2022-10-31T10:32:37.247Z,27
2022-10-31T10:33:46.439Z,26.1
2022-10-31T10:35:01.168Z,27.5
2022-10-31T10:36:15.635Z,33.4
2022-10-31T10:37:20.556Z,28.1
2022-10-31T10:38:27.687Z,27
2022-10-31T10:39:42.516Z,28.2
2022-10-31T10:40:47.039Z,32.7
2022-10-31T10:41:51.380Z,32
2022-10-31T10:43:00.731Z,33.3
2022-10-31T10:44:15.600Z,29.6
2022-10-31T10:45:20.144Z,30.1
2022-10-31T10:46:29.727Z,30.9
2022-10-31T10:47:41.976Z,28.7
2022-10-31T10:48:46.574Z,29.2
2022-10-31T10:49:56.227Z,30.5
2022-10-31T10:51:00.511Z,28.1
2022-10-31T10:52:39.530Z,33.4
2022-10-31T10:53:14.573Z,35.6
2022-10-31T10:54:26.963Z,30.2
2022-10-31T10:55:41.500Z,28.6
2022-10-31T10:56:51.331Z,36.5
2022-10-31T10:57:55.705Z,34.2
2022-10-31T10:58:59.863Z,30
2022-10-31T11:00:04.556Z,34.3
2022-10-31T11:02:18.239Z,29.5
2022-10-31T11:03:25.255Z,29.4
2022-10-31T11:04:29.311Z,34.8
2022-10-31T11:05:36.505Z,39.3
2022-10-31T11:06:40.524Z,31.6
2022-10-31T11:07:44.600Z,29.8
2022-10-31T11:08:48.867Z,33.7
2022-10-31T11:09:53.343Z,32.4
2022-10-31T11:10:57.544Z,27.4
2022-10-31T11:12:10.212Z,31
2022-10-31T11:13:17.341Z,30.6
2022-10-31T11:14:24.343Z,35.1
2022-10-31T11:15:29.232Z,27.8
2022-10-31T11:16:36.864Z,30.4
2022-10-31T11:17:37.573Z,31.5
2022-10-31T11:18:41.757Z,32.7
2022-10-31T11:19:46.307Z,34.5
2022-10-31T11:20:50.859Z,32.5
2022-10-31T11:21:55.590Z,31.5
2022-10-31T11:23:08.009Z,33.9
2022-10-31T11:24:20.455Z,27.7
2022-10-31T11:25:24.951Z,33.7
2022-10-31T11:26:29.035Z,28.3
2022-10-31T11:27:33.661Z,30.3
2022-10-31T11:28:37.872Z,29
2022-10-31T11:29:42.387Z,29.7
2022-10-31T11:30:46.938Z,33
2022-10-31T11:31:59.063Z,31.7
2022-10-31T11:33:03.451Z,32.1
2022-10-31T11:34:07.295Z,29.6
2022-10-31T11:35:14.415Z,32
2022-10-31T11:36:18.572Z,28.5
2022-10-31T11:37:22.667Z,30.5
2022-10-31T11:38:32.171Z,20.6
2022-10-31T11:39:36.252Z,20.6
2022-10-31T11:40:40.368Z,21
2022-10-31T11:41:44.508Z,20.9
2022-10-31T11:42:48.656Z,21.3
2022-10-31T11:43:53.239Z,18.3
2022-10-31T11:44:57.292Z,18.4
2022-10-31T11:46:01.480Z,20.4
2022-10-31T11:47:11.065Z,22.7
2022-10-31T11:48:15.659Z,20.7
2022-10-31T11:49:20.143Z,20.3
2022-10-31T11:50:29.438Z,17.8
2022-10-31T11:51:36.526Z,21.7
2022-10-31T11:52:40.776Z,25.3
2022-10-31T11:53:45.197Z,20.5
2022-10-31T11:54:52.384Z,21.9
2022-10-31T11:55:59.635Z,21.8
2022-10-31T11:57:07.141Z,21.2
2022-10-31T11:58:16.950Z,19.2
2022-10-31T11:59:21.377Z,21.7
2022-10-31T12:01:33.200Z,21.5
2022-10-31T12:02:37.193Z,22.3
2022-10-31T12:03:41.931Z,22.4
2022-10-31T12:04:46.444Z,23.4
2022-10-31T12:05:58.648Z,22.4
2022-10-31T12:07:13.434Z,20.6
2022-10-31T12:08:17.572Z,22.9
2022-10-31T12:09:22.351Z,22.6
2022-10-31T12:10:29.779Z,23.2
2022-10-31T12:11:39.857Z,21.6
2022-10-31T12:12:46.923Z,19.9
2022-10-31T12:13:59.827Z,20.7
2022-10-31T12:15:00.865Z,22.3
2022-10-31T12:16:12.943Z,21.3
2022-10-31T12:17:20.150Z,19.1
2022-10-31T12:18:27.219Z,24.3
2022-10-31T12:19:34.756Z,21
2022-10-31T12:20:47.135Z,18.8
2022-10-31T12:21:59.315Z,20.7
2022-10-31T12:23:06.425Z,19.3
2022-10-31T12:24:15.807Z,19.8
2022-10-31T12:25:25.275Z,19.6
2022-10-31T12:26:34.396Z,20.6
2022-10-31T12:27:43.655Z,20.8
2022-10-31T12:28:55.314Z,22.9
2022-10-31T12:30:00.015Z,20.7
2022-10-31T12:31:09.600Z,23.1
2022-10-31T12:32:23.947Z,21.8
2022-10-31T12:33:28.403Z,18.7
2022-10-31T12:34:37.599Z,22.7
2022-10-31T12:35:51.959Z,18.8
2022-10-31T12:37:01.646Z,18.6
2022-10-31T12:38:11.259Z,18.8
2022-10-31T12:39:26.020Z,20.3
2022-10-31T12:40:40.886Z,16
2022-10-31T12:41:50.919Z,18.1
2022-10-31T12:43:05.719Z,20.3
2022-10-31T12:44:20.406Z,22.4
2022-10-31T12:45:35.122Z,18.6
2022-10-31T12:46:49.616Z,22.1
2022-10-31T12:48:04.227Z,21.1
2022-10-31T12:49:11.383Z,21.1
2022-10-31T12:50:18.502Z,18
2022-10-31T12:51:28.148Z,19.6
2022-10-31T12:52:39.987Z,19.3
2022-10-31T12:53:49.607Z,18.2
2022-10-31T12:55:04.351Z,21.5
2022-10-31T12:56:19.110Z,24.2
2022-10-31T12:57:23.496Z,24.2
2022-10-31T12:58:38.006Z,21.1
2022-10-31T12:59:50.123Z,21
2022-10-31T13:00:59.445Z,20
2022-10-31T13:02:09.090Z,19.3
2022-10-31T13:03:18.234Z,22.5
2022-10-31T13:04:25.292Z,20.4
2022-10-31T13:05:38.066Z,19.1
2022-10-31T13:06:44.602Z,19.4
2022-10-31T13:07:52.325Z,20
2022-10-31T13:09:07.068Z,22.8
2022-10-31T13:10:19.398Z,19
2022-10-31T13:11:34.023Z,18.8
2022-10-31T13:12:46.841Z,21.1
2022-10-31T13:13:51.322Z,19.9
2022-10-31T13:15:06.099Z,21.4
2022-10-31T13:16:13.333Z,19
2022-10-31T13:17:18.001Z,20.1
2022-10-31T13:18:32.540Z,23
2022-10-31T13:19:44.806Z,17.7
2022-10-31T13:20:52.985Z,20.2
2022-10-31T13:21:53.017Z,19.3
2022-10-31T13:22:57.169Z,21.3
2022-10-31T13:24:07.223Z,23.1
2022-10-31T13:25:11.490Z,19.7
2022-10-31T13:26:21.190Z,22.5
2022-10-31T13:27:28.559Z,22.2
2022-10-31T13:28:37.885Z,19.7
2022-10-31T13:29:42.378Z,17.8
2022-10-31T13:30:54.703Z,20.1
2022-10-31T13:31:59.194Z,17
2022-10-31T13:33:06.303Z,18.5
2022-10-31T13:34:13.543Z,18.8
2022-10-31T13:35:28.139Z,16.8
2022-10-31T13:36:43.002Z,17.9
2022-10-31T13:37:50.955Z,19.7
2022-10-31T13:39:02.372Z,20.2
2022-10-31T13:40:17.223Z,18.1
2022-10-31T13:41:29.251Z,19.7
2022-10-31T13:42:38.918Z,19
2022-10-31T13:43:53.651Z,16.9
2022-10-31T13:45:00.262Z,20.9
2022-10-31T13:46:15.031Z,18.9
2022-10-31T13:47:27.314Z,17.9
2022-10-31T13:48:31.417Z,19.1
2022-10-31T13:49:35.406Z,18.2
2022-10-31T13:50:39.479Z,18.7
2022-10-31T13:51:43.687Z,17.5
2022-10-31T13:52:48.199Z,17
2022-10-31T13:53:52.801Z,16.8
2022-10-31T13:54:56.926Z,17.9
2022-10-31T13:56:01.060Z,17.1
2022-10-31T13:57:10.687Z,17.4
2022-10-31T13:58:20.332Z,18.8
2022-10-31T13:59:27.447Z,18.8
2022-10-31T14:00:31.531Z,17.9
2022-10-31T14:01:36.312Z,19
2022-10-31T14:02:40.172Z,20.9
2022-10-31T14:04:49.368Z,19.1
2022-10-31T14:05:56.362Z,17.4
2022-10-31T14:07:00.486Z,18.1
2022-10-31T14:08:10.830Z,17
2022-10-31T14:09:17.862Z,18.6
2022-10-31T14:10:22.041Z,16.2
2022-10-31T14:11:36.339Z,19.1
2022-10-31T14:12:39.212Z,20.3
2022-10-31T14:13:43.683Z,17.9
2022-10-31T14:14:47.802Z,17.3
2022-10-31T14:15:51.862Z,15.9
2022-10-31T14:17:01.567Z,19.4
2022-10-31T14:18:05.729Z,17.7
2022-10-31T14:19:09.754Z,19
2022-10-31T14:20:19.295Z,17.4
2022-10-31T14:21:31.522Z,17
2022-10-31T14:22:42.309Z,17.2
2022-10-31T14:23:42.807Z,22.1
2022-10-31T14:24:47.299Z,23.5
2022-10-31T14:25:51.486Z,53.4
2022-10-31T14:26:55.976Z,150.9
2022-10-31T14:28:00.403Z,244.2
2022-10-31T14:29:04.182Z,749.2
2022-10-31T14:30:16.421Z,687.9
2022-10-31T14:31:21.095Z,600.1
2022-10-31T14:32:30.631Z,480.9
2022-10-31T14:33:34.699Z,522.6
2022-10-31T14:34:38.852Z,520.8
2022-10-31T14:35:42.867Z,568.3
2022-10-31T14:36:55.046Z,562
2022-10-31T14:38:09.850Z,560.7
2022-10-31T14:39:17.183Z,522.9
2022-10-31T14:40:29.234Z,449.8
2022-10-31T14:41:38.934Z,424.1
2022-10-31T14:42:53.659Z,406.5
2022-10-31T14:44:08.440Z,345.8
2022-10-31T14:45:12.983Z,364.4
2022-10-31T14:46:22.652Z,355.7
2022-10-31T14:47:37.404Z,312.9